EREK1: Neosho River near Erie

                                SHEF ID:       EREK1     NEOSHO R NR ERIE, KS
STATION TYPE:

PRECIP STAGE RIV-FLOW BAT-LOAD
in ft cfs volt
Ccp-Rev Ccp-Rev Ccp-Rev Ccp-Rev
(America/Chicago)
03/14 00:00 ---- 15.14 4690 12.40
03/14 01:00 ---- 15.12 4660 12.37
03/14 02:00 ---- 15.11 4650 12.36
03/14 03:00 ---- 15.09 4620 12.34
03/14 04:00 ---- 15.06 4580 12.31
03/14 05:00 ---- 15.04 4550 12.29
03/14 06:00 ---- 15.02 4520 12.26
03/14 07:00 ---- 15.01 4510 12.23
03/14 08:00 ---- 14.99 4480 12.21
03/14 09:00 ---- 14.96 4430 12.27
03/14 10:00 ---- 14.91 4360 12.65
03/14 11:00 ---- 14.87 4310 13.30
03/14 12:00 ---- 14.85 4280 13.49
03/14 13:00 ---- 14.86 4290 13.26
03/14 14:00 ---- 14.84 4260 13.22
03/14 15:00 ---- 14.79 4190 13.19
03/14 16:00 ---- 14.77 4170 13.18
03/14 17:00 ---- 14.80 4210 13.17
03/14 18:00 ---- 14.79 4190 13.16
03/14 19:00 ---- 14.78 4180 13.16
03/14 20:00 ---- 14.79 4190 12.93
03/14 21:00 ---- 14.83 4250 12.54
03/14 22:00 ---- 14.81 4220 12.48
03/14 23:00 ---- 14.75 4140 12.44
Data processed at Sun 15Mar2026 04:23 GMT

NOTICE: If you are parsing this page

Please convert to using our Data API. Starting early 2026 we will be migrating to: https://water.usace.army.mil with modern pages rendered in JavaScript. When this migration completes you will no longer be able to scrape this page! CWMSDataAPI (CDA)

Timeseries IDs (TSIDs)

TSIDs used from left to right in the data table
ERIE.Precip-Inc.Total.1Hour.1Hour.Ccp-Rev
ERIE.Stage.Inst.1Hour.0.Ccp-Rev
ERIE.Flow.Inst.1Hour.0.Ccp-Rev
ERIE.Volt-Battery Load.Inst.1Hour.0.Ccp-Rev

                            

All information presented herein is the property of the government of the United States of America and may be revised or deleted at any time without prior notice. Dissemination of this information without the expressed written consent of the Public Affairs Office, Tulsa District U.S. Army Corps of Engineers is strictly prohibited. These data are gathered electronically and, as presented, have NOT undergone any form of quality control. These data are NOT guaranteed to be valid or correct.